createdAt,value
2018-08-20T00:01:51.192Z,5.93
2018-08-20T00:04:19.835Z,6.80
2018-08-20T00:06:56.611Z,6.93
2018-08-20T00:09:36.807Z,8.40
2018-08-20T00:12:06.881Z,8.27
2018-08-20T00:14:35.684Z,8.50
2018-08-20T00:17:04.417Z,8.30
2018-08-20T00:19:33.024Z,8.20
2018-08-20T00:22:01.643Z,7.63
2018-08-20T00:24:30.236Z,7.20
2018-08-20T00:27:00.087Z,7.07
2018-08-20T00:29:28.676Z,7.20
2018-08-20T00:31:57.371Z,7.60
2018-08-20T00:34:26.092Z,7.17
2018-08-20T00:36:54.655Z,7.07
2018-08-20T00:39:23.239Z,8.20
2018-08-20T00:41:52.211Z,7.37
2018-08-20T00:44:20.912Z,6.67
2018-08-20T00:46:49.464Z,6.90
2018-08-20T00:49:18.191Z,6.97
2018-08-20T00:51:46.779Z,6.57
2018-08-20T00:54:15.431Z,6.83
2018-08-20T00:56:44.330Z,6.23
2018-08-20T00:59:12.879Z,6.70
2018-08-20T01:01:41.438Z,7.33
2018-08-20T01:04:10.035Z,7.07
2018-08-20T01:06:38.619Z,6.57
2018-08-20T01:09:08.536Z,7.40
2018-08-20T01:11:37.831Z,6.30
2018-08-20T01:14:06.477Z,6.23
2018-08-20T01:16:35.119Z,6.70
2018-08-20T01:19:03.947Z,6.70
2018-08-20T01:21:32.532Z,6.70
2018-08-20T01:24:01.148Z,7.53
2018-08-20T01:26:29.751Z,6.70
2018-08-20T01:28:58.307Z,6.40
2018-08-20T01:31:26.875Z,5.97
2018-08-20T01:33:55.755Z,6.83
2018-08-20T01:36:24.323Z,6.80
2018-08-20T01:38:52.894Z,7.40
2018-08-20T01:41:21.715Z,7.40
2018-08-20T01:43:50.309Z,7.30
2018-08-20T01:46:18.886Z,7.70
2018-08-20T01:48:47.471Z,6.53
2018-08-20T01:51:16.098Z,7.37
2018-08-20T01:53:44.680Z,8.37
2018-08-20T01:56:13.295Z,7.27
2018-08-20T01:58:41.871Z,7.10
2018-08-20T02:01:10.519Z,7.37
2018-08-20T02:03:39.143Z,7.77
2018-08-20T02:06:07.774Z,7.53
2018-08-20T02:08:36.432Z,7.60
2018-08-20T02:11:05.035Z,7.20
2018-08-20T02:13:33.703Z,7.23
2018-08-20T02:16:02.267Z,7.93
2018-08-20T02:18:30.956Z,7.23
2018-08-20T02:20:59.572Z,6.77
2018-08-20T02:23:28.127Z,7.20
2018-08-20T02:25:56.752Z,6.63
2018-08-20T02:28:25.340Z,7.03
2018-08-20T02:30:53.924Z,8.20
2018-08-20T02:33:22.540Z,6.57
2018-08-20T02:35:51.097Z,7.47
2018-08-20T02:38:19.716Z,6.67
2018-08-20T02:40:48.323Z,7.20
2018-08-20T02:43:16.964Z,7.47
2018-08-20T02:45:45.548Z,7.57
2018-08-20T02:48:14.160Z,7.50
2018-08-20T02:50:42.728Z,8.50
2018-08-20T02:53:11.312Z,6.90
2018-08-20T02:55:39.932Z,7.10
2018-08-20T02:58:08.540Z,7.37
2018-08-20T03:00:37.099Z,6.80
2018-08-20T03:03:05.800Z,7.10
2018-08-20T03:05:34.907Z,7.00
2018-08-20T03:08:03.506Z,8.20
2018-08-20T03:10:32.103Z,7.27
2018-08-20T03:13:00.692Z,7.20
2018-08-20T03:15:29.263Z,6.63
2018-08-20T03:17:57.931Z,7.27
2018-08-20T03:20:26.572Z,6.90
2018-08-20T03:22:55.114Z,6.67
2018-08-20T03:25:23.995Z,7.33
2018-08-20T03:27:52.595Z,7.50
2018-08-20T03:30:21.148Z,8.33
2018-08-20T03:32:50.066Z,7.90
2018-08-20T03:35:18.629Z,7.27
2018-08-20T03:37:47.199Z,7.40
2018-08-20T03:40:16.114Z,6.80
2018-08-20T03:42:44.696Z,7.67
2018-08-20T03:45:13.463Z,6.77
2018-08-20T03:47:42.379Z,7.83
2018-08-20T03:50:13.511Z,7.20
2018-08-20T03:52:42.155Z,7.83
2018-08-20T03:55:10.771Z,7.10
2018-08-20T03:57:39.375Z,7.63
2018-08-20T04:00:10.193Z,8.00
2018-08-20T04:02:38.772Z,6.40
2018-08-20T04:05:07.527Z,7.17
2018-08-20T04:07:36.136Z,7.00
2018-08-20T04:10:04.791Z,7.40
2018-08-20T04:12:33.334Z,8.07
2018-08-20T04:15:02.016Z,7.50
2018-08-20T04:17:30.621Z,8.20
2018-08-20T04:19:59.195Z,7.13
2018-08-20T04:22:27.808Z,6.33
2018-08-20T04:24:56.388Z,7.00
2018-08-20T04:27:24.951Z,6.80
2018-08-20T04:29:53.563Z,6.60
2018-08-20T04:32:22.122Z,6.90
2018-08-20T04:34:50.800Z,7.47
2018-08-20T04:37:19.487Z,6.60
2018-08-20T04:39:48.077Z,6.30
2018-08-20T04:42:16.763Z,7.10
2018-08-20T04:44:45.546Z,8.53
2018-08-20T04:50:00.897Z,6.93
2018-08-20T04:52:29.424Z,6.53
2018-08-20T04:54:58.021Z,7.13
2018-08-20T04:57:27.007Z,7.33
2018-08-20T04:59:55.552Z,6.90
2018-08-20T05:02:24.131Z,7.00
2018-08-20T05:04:52.805Z,7.00
2018-08-20T05:07:21.383Z,7.93
2018-08-20T05:09:49.959Z,7.13
2018-08-20T05:12:18.568Z,7.10
2018-08-20T05:14:47.164Z,7.07
2018-08-20T05:17:15.775Z,6.83
2018-08-20T05:19:44.367Z,6.83
2018-08-20T05:22:12.927Z,7.07
2018-08-20T05:24:41.479Z,7.70
2018-08-20T05:27:10.084Z,7.97
2018-08-20T05:29:38.668Z,7.67
2018-08-20T05:32:07.419Z,7.50
2018-08-20T05:34:36.120Z,8.17
2018-08-20T05:37:05.048Z,7.07
2018-08-20T05:39:33.616Z,7.67
2018-08-20T05:42:02.279Z,7.83
2018-08-20T05:44:30.836Z,8.03
2018-08-20T05:46:59.402Z,8.27
2018-08-20T05:49:28.219Z,8.10
2018-08-20T05:51:56.823Z,7.77
2018-08-20T05:54:25.740Z,7.20
2018-08-20T05:56:54.595Z,7.30
2018-08-20T05:59:23.484Z,7.30
2018-08-20T06:01:52.479Z,6.87
2018-08-20T06:04:21.460Z,9.60
2018-08-20T06:06:50.615Z,7.80
2018-08-20T06:09:19.767Z,7.97
2018-08-20T06:11:48.392Z,7.00
2018-08-20T06:14:17.364Z,7.33
2018-08-20T06:16:46.288Z,7.47
2018-08-20T06:19:14.901Z,7.77
2018-08-20T06:21:43.464Z,7.50
2018-08-20T06:24:12.096Z,7.70
2018-08-20T06:26:40.756Z,7.67
2018-08-20T06:29:09.341Z,8.37
2018-08-20T06:31:37.924Z,7.20
2018-08-20T06:34:07.033Z,8.10
2018-08-20T06:36:35.605Z,8.23
2018-08-20T06:39:05.852Z,7.33
2018-08-20T06:41:34.820Z,7.50
2018-08-20T06:44:03.464Z,6.80
2018-08-20T06:46:32.037Z,8.47
2018-08-20T06:49:00.964Z,7.90
2018-08-20T06:51:29.568Z,7.10
2018-08-20T06:53:58.139Z,7.13
2018-08-20T06:56:26.768Z,7.23
2018-08-20T06:58:55.336Z,7.67
2018-08-20T07:01:23.928Z,6.50
2018-08-20T07:03:52.596Z,8.30
2018-08-20T07:06:21.194Z,7.10
2018-08-20T07:08:49.792Z,7.43
2018-08-20T07:11:18.399Z,6.73
2018-08-20T07:13:46.988Z,6.27
2018-08-20T07:16:15.671Z,6.63
2018-08-20T07:18:45.216Z,6.23
2018-08-20T07:21:13.763Z,6.03
2018-08-20T07:23:42.385Z,5.60
2018-08-20T07:26:11.282Z,5.90
2018-08-20T07:28:39.851Z,5.57
2018-08-20T07:31:08.436Z,6.23
2018-08-20T07:33:37.076Z,6.07
2018-08-20T07:36:05.683Z,6.70
2018-08-20T07:38:34.276Z,6.30
2018-08-20T07:41:02.949Z,6.60
2018-08-20T07:43:31.684Z,6.47
2018-08-20T07:46:00.400Z,5.80
2018-08-20T07:48:29.350Z,6.40
2018-08-20T07:50:58.012Z,4.57
2018-08-20T07:53:26.593Z,4.90
2018-08-20T07:55:55.291Z,5.00
2018-08-20T07:58:23.956Z,5.50
2018-08-20T08:00:52.539Z,5.80
2018-08-20T08:03:29.191Z,5.57
2018-08-20T08:05:59.280Z,4.53
2018-08-20T08:08:27.877Z,5.60
2018-08-20T08:10:56.475Z,5.10
2018-08-20T08:13:25.088Z,5.67
2018-08-20T08:15:53.656Z,5.50
2018-08-20T08:18:22.596Z,5.40
2018-08-20T08:20:51.216Z,5.57
2018-08-20T08:23:19.835Z,5.43
2018-08-20T08:25:48.566Z,5.10
2018-08-20T08:28:17.172Z,4.47
2018-08-20T08:30:45.776Z,4.50
2018-08-20T08:33:14.508Z,4.77
2018-08-20T08:35:43.132Z,4.37
2018-08-20T08:38:11.905Z,5.17
2018-08-20T08:40:40.488Z,4.33
2018-08-20T08:43:09.098Z,5.73
2018-08-20T08:45:37.671Z,5.70
2018-08-20T08:48:06.399Z,5.00
2018-08-20T08:50:34.997Z,5.07
2018-08-20T08:53:03.568Z,5.20
2018-08-20T08:55:32.179Z,5.10
2018-08-20T08:58:00.772Z,5.17
2018-08-20T09:00:29.423Z,4.77
2018-08-20T09:02:58.012Z,4.90
2018-08-20T09:05:26.578Z,5.40
2018-08-20T09:07:55.214Z,5.37
2018-08-20T09:10:24.091Z,5.50
2018-08-20T09:12:52.675Z,5.27
2018-08-20T09:15:21.263Z,5.17
2018-08-20T09:17:49.939Z,4.87
2018-08-20T09:20:18.659Z,4.50
2018-08-20T09:22:47.280Z,4.63
2018-08-20T09:25:16.067Z,5.00
2018-08-20T09:27:45.484Z,4.80
2018-08-20T09:30:19.077Z,4.83
2018-08-20T09:32:48.487Z,5.47
2018-08-20T09:35:17.163Z,4.80
2018-08-20T09:37:46.099Z,5.07
2018-08-20T09:40:14.874Z,5.10
2018-08-20T09:42:44.027Z,5.77
2018-08-20T09:45:13.083Z,4.60
2018-08-20T09:47:42.548Z,6.17
2018-08-20T09:50:14.040Z,5.20
2018-08-20T09:52:43.371Z,4.70
2018-08-20T09:55:11.958Z,4.30
2018-08-20T09:57:41.073Z,4.93
2018-08-20T10:00:20.212Z,4.43
2018-08-20T10:02:49.004Z,4.20
2018-08-20T10:05:17.995Z,4.90
2018-08-20T10:07:47.048Z,5.43
2018-08-20T10:10:16.148Z,5.53
2018-08-20T10:12:45.704Z,4.70
2018-08-20T10:15:14.792Z,5.00
2018-08-20T10:17:44.523Z,5.07
2018-08-20T10:20:14.316Z,5.17
2018-08-20T10:22:42.919Z,4.30
2018-08-20T10:25:11.565Z,5.00
2018-08-20T10:27:40.168Z,5.03
2018-08-20T10:30:10.463Z,4.27
2018-08-20T10:32:39.180Z,4.70
2018-08-20T10:35:08.136Z,5.23
2018-08-20T10:37:36.778Z,4.70
2018-08-20T10:40:06.450Z,5.30
2018-08-20T10:42:35.067Z,4.43
2018-08-20T10:45:09.082Z,5.67
2018-08-20T10:47:37.644Z,4.63
2018-08-20T10:50:06.409Z,4.23
2018-08-20T10:52:34.975Z,4.23
2018-08-20T10:55:03.569Z,4.07
2018-08-20T10:57:32.282Z,4.57
2018-08-20T11:00:00.900Z,4.57
2018-08-20T11:02:29.476Z,4.70
2018-08-20T11:04:58.055Z,5.17
2018-08-20T11:07:26.668Z,4.30
2018-08-20T11:09:55.237Z,4.30
2018-08-20T11:12:23.880Z,4.13
2018-08-20T11:14:52.688Z,4.70
2018-08-20T11:17:21.255Z,4.57
2018-08-20T11:19:49.856Z,4.00
2018-08-20T11:22:18.516Z,4.27
2018-08-20T11:24:47.096Z,4.80
2018-08-20T11:27:15.640Z,4.47
2018-08-20T11:29:44.444Z,4.77
2018-08-20T11:32:13.004Z,3.93
2018-08-20T11:34:41.679Z,3.43
2018-08-20T11:37:10.373Z,3.20
2018-08-20T11:39:38.976Z,3.67
2018-08-20T11:42:07.575Z,3.70
2018-08-20T11:44:36.267Z,3.87
2018-08-20T11:47:04.913Z,4.00
2018-08-20T11:49:33.604Z,3.03
2018-08-20T11:52:02.293Z,3.67
2018-08-20T11:54:30.851Z,4.30
2018-08-20T11:56:59.495Z,4.20
2018-08-20T11:59:28.219Z,4.83
2018-08-20T12:01:56.972Z,4.60
2018-08-20T12:04:25.508Z,4.17
2018-08-20T12:06:54.179Z,3.73
2018-08-20T12:09:22.732Z,3.97
2018-08-20T12:11:51.306Z,4.00
2018-08-20T12:14:20.012Z,4.30
2018-08-20T12:16:48.600Z,4.47
2018-08-20T12:19:17.203Z,4.93
2018-08-20T12:21:45.946Z,4.50
2018-08-20T12:24:14.504Z,4.30
2018-08-20T12:26:43.068Z,5.20
2018-08-20T12:29:11.831Z,4.60
2018-08-20T12:31:40.435Z,5.20
2018-08-20T12:34:09.053Z,5.50
2018-08-20T12:36:38.463Z,4.37
2018-08-20T12:39:08.468Z,5.30
2018-08-20T12:41:37.036Z,4.27
2018-08-20T12:44:06.140Z,5.60
2018-08-20T12:46:34.676Z,4.80
2018-08-20T12:49:03.279Z,5.07
2018-08-20T12:51:31.931Z,5.57
2018-08-20T12:54:00.624Z,5.13
2018-08-20T12:56:29.188Z,5.37
2018-08-20T12:58:57.947Z,4.43
2018-08-20T13:01:26.565Z,4.80
2018-08-20T13:03:55.142Z,4.43
2018-08-20T13:06:23.776Z,4.77
2018-08-20T13:08:52.353Z,5.00
2018-08-20T13:11:21.117Z,4.13
2018-08-20T13:13:49.860Z,4.80
2018-08-20T13:16:18.478Z,4.30
2018-08-20T13:18:46.980Z,5.23
2018-08-20T13:21:15.801Z,4.63
2018-08-20T13:23:44.345Z,5.07
2018-08-20T13:26:12.948Z,4.80
2018-08-20T13:28:41.584Z,4.80
2018-08-20T13:31:10.263Z,4.83
2018-08-20T13:33:38.837Z,5.30
2018-08-20T13:36:07.585Z,4.80
2018-08-20T13:38:36.211Z,5.33
2018-08-20T13:41:04.823Z,4.80
2018-08-20T13:43:33.419Z,5.10
2018-08-20T13:46:02.050Z,5.10
2018-08-20T13:48:30.624Z,5.70
2018-08-20T13:50:59.231Z,5.40
2018-08-20T13:53:27.785Z,4.73
2018-08-20T13:55:56.385Z,4.50
2018-08-20T13:58:25.030Z,5.10
2018-08-20T14:00:53.662Z,4.80
2018-08-20T14:03:22.327Z,5.13
2018-08-20T14:05:51.181Z,4.70
2018-08-20T14:08:19.756Z,4.43
2018-08-20T14:10:48.335Z,5.23
2018-08-20T14:13:16.972Z,4.70
2018-08-20T14:15:45.684Z,4.90
2018-08-20T14:18:14.207Z,4.50
2018-08-20T14:21:18.126Z,5.10
2018-08-20T14:23:47.905Z,4.73
2018-08-20T14:26:16.529Z,5.07
2018-08-20T14:28:45.173Z,5.00
2018-08-20T14:31:13.770Z,5.23
2018-08-20T14:33:42.339Z,4.40
2018-08-20T14:36:11.192Z,5.40
2018-08-20T14:38:39.763Z,4.67
2018-08-20T14:41:08.368Z,4.87
2018-08-20T14:43:36.996Z,5.00
2018-08-20T14:46:11.269Z,4.83
2018-08-20T14:48:39.917Z,4.70
2018-08-20T14:51:08.432Z,5.80
2018-08-20T14:53:37.050Z,5.63
2018-08-20T14:56:05.972Z,5.00
2018-08-20T14:58:34.564Z,5.20
2018-08-20T15:01:03.120Z,5.50
2018-08-20T15:03:32.148Z,5.40
2018-08-20T15:06:00.700Z,5.23
2018-08-20T15:08:29.264Z,4.70
2018-08-20T15:10:57.912Z,4.63
2018-08-20T15:13:26.480Z,5.67
2018-08-20T15:15:55.097Z,5.97
2018-08-20T15:18:24.055Z,6.10
2018-08-20T15:20:52.680Z,5.70
2018-08-20T15:23:21.259Z,6.90
2018-08-20T15:25:49.917Z,5.70
2018-08-20T15:28:18.529Z,5.70
2018-08-20T15:30:47.149Z,5.80
2018-08-20T15:33:15.764Z,5.37
2018-08-20T15:35:44.317Z,6.00
2018-08-20T15:38:13.016Z,5.90
2018-08-20T15:40:41.616Z,6.00
2018-08-20T15:43:10.392Z,5.33
2018-08-20T15:45:38.964Z,5.40
2018-08-20T15:48:07.873Z,4.90
2018-08-20T15:50:36.432Z,5.43
2018-08-20T15:53:05.068Z,5.37
2018-08-20T15:55:33.764Z,5.40
2018-08-20T15:58:02.360Z,5.27
2018-08-20T16:00:30.963Z,5.47
2018-08-20T16:03:00.104Z,5.40
2018-08-20T16:05:28.684Z,5.33
2018-08-20T16:07:57.268Z,5.27
2018-08-20T16:10:25.944Z,5.67
2018-08-20T16:12:54.711Z,4.60
2018-08-20T16:15:23.283Z,5.30
2018-08-20T16:17:51.967Z,5.70
2018-08-20T16:20:20.573Z,5.13
2018-08-20T16:22:49.131Z,5.30
2018-08-20T16:25:17.707Z,5.10
2018-08-20T16:27:46.260Z,5.30
2018-08-20T16:30:14.891Z,4.53
2018-08-20T16:32:43.557Z,5.00
2018-08-20T16:35:13.264Z,5.20
2018-08-20T16:37:43.387Z,4.90
2018-08-20T16:40:12.375Z,5.57
2018-08-20T16:42:40.938Z,4.63
2018-08-20T16:45:10.647Z,4.73
2018-08-20T16:47:39.710Z,5.30
2018-08-20T16:50:10.676Z,5.27
2018-08-20T16:52:40.239Z,5.07
2018-08-20T16:55:09.568Z,4.60
2018-08-20T16:57:38.216Z,4.30
2018-08-20T17:00:09.043Z,4.37
2018-08-20T17:02:41.900Z,4.50
2018-08-20T17:05:12.084Z,4.87
2018-08-20T17:07:41.031Z,4.93
2018-08-20T17:10:11.536Z,4.30
2018-08-20T17:12:40.630Z,4.20
2018-08-20T17:15:11.304Z,5.20
2018-08-20T17:17:40.363Z,4.60
2018-08-20T17:20:10.507Z,3.83
2018-08-20T17:22:39.244Z,4.57
2018-08-20T17:25:08.552Z,4.03
2018-08-20T17:27:37.270Z,4.20
2018-08-20T17:30:08.214Z,4.00
2018-08-20T17:32:36.884Z,4.20
2018-08-20T17:35:08.167Z,3.27
2018-08-20T17:37:36.779Z,4.20
2018-08-20T17:40:08.811Z,3.87
2018-08-20T17:42:37.401Z,4.30
2018-08-20T17:45:07.489Z,4.47
2018-08-20T17:47:39.389Z,3.23
2018-08-20T17:50:19.956Z,3.10
2018-08-20T17:52:48.907Z,4.53
2018-08-20T17:55:17.504Z,4.10
2018-08-20T17:57:46.151Z,3.20
2018-08-20T18:00:26.200Z,3.43
2018-08-20T18:02:54.796Z,3.43
2018-08-20T18:05:25.023Z,3.90
2018-08-20T18:07:54.171Z,3.70
2018-08-20T18:10:22.739Z,3.40
2018-08-20T18:12:51.313Z,4.37
2018-08-20T18:15:20.069Z,4.00
2018-08-20T18:17:48.639Z,3.73
2018-08-20T18:20:17.221Z,3.07
2018-08-20T18:22:45.876Z,4.30
2018-08-20T18:25:18.893Z,3.70
2018-08-20T18:27:47.763Z,3.70
2018-08-20T18:30:17.899Z,3.23
2018-08-20T18:32:46.919Z,3.30
2018-08-20T18:35:22.723Z,4.07
2018-08-20T18:37:52.158Z,3.77
2018-08-20T18:40:20.834Z,3.50
2018-08-20T18:42:49.424Z,3.60
2018-08-20T18:45:18.365Z,3.13
2018-08-20T18:47:46.953Z,3.63
2018-08-20T18:50:15.746Z,3.53
2018-08-20T18:52:44.724Z,3.70
2018-08-20T18:55:13.303Z,4.00
2018-08-20T18:57:41.867Z,4.20
2018-08-20T19:00:13.452Z,3.80
2018-08-20T19:02:47.955Z,3.60
2018-08-20T19:05:17.786Z,3.43
2018-08-20T19:07:46.744Z,3.60
2018-08-20T19:10:24.170Z,3.50
2018-08-20T19:12:52.944Z,3.60
2018-08-20T19:15:50.032Z,4.20
2018-08-20T19:18:21.323Z,3.53
2018-08-20T19:20:50.016Z,4.30
2018-08-20T19:23:18.588Z,3.80
2018-08-20T19:25:47.621Z,5.20
2018-08-20T19:28:20.914Z,3.40
2018-08-20T19:30:50.184Z,4.53
2018-08-20T19:33:24.961Z,4.50
2018-08-20T19:35:54.134Z,3.73
2018-08-20T19:38:22.831Z,4.20
2018-08-20T19:41:07.380Z,4.00
2018-08-20T19:43:53.528Z,3.97
2018-08-20T19:46:28.751Z,3.63
2018-08-20T19:49:02.666Z,3.40
2018-08-20T19:51:33.260Z,4.20
2018-08-20T19:54:01.920Z,3.60
2018-08-20T19:56:30.835Z,3.57
2018-08-20T19:58:59.732Z,4.00
2018-08-20T20:01:28.452Z,3.80
2018-08-20T20:03:57.135Z,3.60
2018-08-20T20:06:25.827Z,3.27
2018-08-20T20:08:54.502Z,4.03
2018-08-20T20:11:28.391Z,4.17
2018-08-20T20:14:01.053Z,3.57
2018-08-20T20:16:40.198Z,3.97
2018-08-20T20:19:09.683Z,3.77
2018-08-20T20:21:38.566Z,3.80
2018-08-20T20:24:07.903Z,3.73
2018-08-20T20:26:36.511Z,3.20
2018-08-20T20:29:06.217Z,3.03
2018-08-20T20:31:34.831Z,3.30
2018-08-20T20:34:03.440Z,3.33
2018-08-20T20:36:32.839Z,3.13
2018-08-20T20:39:02.313Z,3.10
2018-08-20T20:41:30.907Z,3.73
2018-08-20T20:43:59.531Z,3.40
2018-08-20T20:46:28.172Z,2.83
2018-08-20T20:48:56.812Z,4.70
2018-08-20T20:51:25.379Z,4.03
2018-08-20T20:53:54.297Z,3.30
2018-08-20T20:56:22.879Z,3.70
2018-08-20T20:58:51.456Z,3.50
2018-08-20T21:01:20.261Z,3.30
2018-08-20T21:03:48.831Z,4.20
2018-08-20T21:06:17.399Z,3.67
2018-08-20T21:08:47.743Z,3.63
2018-08-20T21:11:17.567Z,4.40
2018-08-20T21:13:46.676Z,4.67
2018-08-20T21:16:17.732Z,4.17
2018-08-20T21:18:52.903Z,4.10
2018-08-20T21:21:22.172Z,3.80
2018-08-20T21:23:50.867Z,4.50
2018-08-20T21:26:19.503Z,4.30
2018-08-20T21:28:51.708Z,5.50
2018-08-20T21:31:21.663Z,4.63
2018-08-20T21:34:01.544Z,4.60
2018-08-20T21:36:30.103Z,4.33
2018-08-20T21:38:58.772Z,5.00
2018-08-20T21:41:29.327Z,5.00
2018-08-20T21:43:57.975Z,5.10
2018-08-20T21:46:26.572Z,4.50
2018-08-20T21:48:55.215Z,5.17
2018-08-20T21:51:25.536Z,5.30
2018-08-20T21:53:54.292Z,4.00
2018-08-20T21:56:22.983Z,5.00
2018-08-20T21:58:51.547Z,4.43
2018-08-20T22:01:20.352Z,4.60
2018-08-20T22:03:48.884Z,4.30
2018-08-20T22:06:17.471Z,4.13
2018-08-20T22:08:46.186Z,4.30
2018-08-20T22:11:14.754Z,4.50
2018-08-20T22:13:43.351Z,4.23
2018-08-20T22:16:25.541Z,4.53
2018-08-20T22:18:55.656Z,4.40
2018-08-20T22:21:24.776Z,5.30
2018-08-20T22:23:58.388Z,4.40
2018-08-20T22:26:27.280Z,4.60
2018-08-20T22:28:55.947Z,4.67
2018-08-20T22:31:25.200Z,4.73
2018-08-20T22:33:59.643Z,5.10
2018-08-20T22:36:29.443Z,5.50
2018-08-20T22:39:00.373Z,5.97
2018-08-20T22:41:30.152Z,4.87
2018-08-20T22:43:58.859Z,4.53
2018-08-20T22:46:27.588Z,4.97
2018-08-20T22:48:58.055Z,5.70
2018-08-20T22:51:28.095Z,4.80
2018-08-20T22:53:59.360Z,5.20
2018-08-20T22:56:35.239Z,5.23
2018-08-20T22:59:08.967Z,4.97
2018-08-20T23:01:37.571Z,5.47
2018-08-20T23:04:06.687Z,5.20
2018-08-20T23:06:35.356Z,5.67
2018-08-20T23:09:20.491Z,5.47
2018-08-20T23:11:49.123Z,5.27
2018-08-20T23:14:17.727Z,5.60
2018-08-20T23:16:50.828Z,5.67
2018-08-20T23:19:19.568Z,5.20
2018-08-20T23:21:49.115Z,5.47
2018-08-20T23:24:18.607Z,6.37
2018-08-20T23:26:47.189Z,5.20
2018-08-20T23:29:15.763Z,5.40
2018-08-20T23:31:44.409Z,5.57
2018-08-20T23:34:14.343Z,5.50
2018-08-20T23:36:43.462Z,4.57
2018-08-20T23:39:16.185Z,5.60
2018-08-20T23:41:44.888Z,5.07
2018-08-20T23:44:17.097Z,4.97
2018-08-20T23:46:47.775Z,4.70
2018-08-20T23:49:16.339Z,4.97
2018-08-20T23:51:45.021Z,4.77
2018-08-20T23:54:14.212Z,4.67
2018-08-20T23:56:42.811Z,4.80
2018-08-20T23:59:11.524Z,4.70
